Latest Weather Observations for Bendigo

IDV60801

Issued at 2:02 am EST Thursday 30 July 2015 (issued every 30 minutes, with the page automatically refreshed every 10 minutes)

About weather observations | Map of weather stations | Latest weather observations for VIC | Other Formats
Station Details ID: 081123 Name: BENDIGO AIRPORT Lat: -36.74 Lon: 144.33 Height: 208.0 m
Data from the previous 72 hours. | See also: Recent months at Bendigo
Date/Time
EST
Temp
°C
App
Temp
°C
Dew
Point
Rel
Hum
%
Delta-T
°C
Wind Press
QNH
hPa
Press
MSL
hPa
Rain
since 9 am
mm
Dir
 
Spd
km/h
Gust
km/h
Spd
kts
Gust
kts
30/02:00am 2.6 0.9 1.6 93 0.4 CALM 0 0 0 0 1025.9 1026.4 0.0
30/01:30am 2.6 0.8 1.4 92 0.5 CALM 0 0 0 0 1026.2 1026.7 0.0
30/01:00am 2.9 1.2 1.6 91 0.5 CALM 0 0 0 0 1026.3 1026.8 0.0
30/12:30am 4.0 2.3 2.0 87 0.8 CALM 0 0 0 0 1026.7 1027.2 0.0
30/12:00am 5.3 3.8 2.8 84 1.0 CALM 0 0 0 0 1027.3 1027.8 0.0
 
Date/Time
EST
Temp
°C
App
Temp
°C
Dew
Point
Rel
Hum
%
Delta-T
°C
Wind Press
QNH
hPa
Press
MSL
hPa
Rain
since 9 am
mm
Dir
 
Spd
km/h
Gust
km/h
Spd
kts
Gust
kts
29/11:30pm 5.4 3.9 3.1 85 1.0 CALM 0 0 0 0 1027.5 1028.0 0.0
29/11:00pm 6.1 4.6 2.9 80 1.3 CALM 0 0 0 0 1027.8 1028.3 0.0
29/10:30pm 6.7 5.2 3.0 77 1.6 CALM 0 0 0 0 1028.1 1028.6 0.0
29/10:00pm 7.6 5.4 3.1 73 1.9 N 4 9 2 5 1028.2 1028.7 0.0
29/09:30pm 7.8 5.3 3.5 74 1.8 N 6 9 3 5 1028.2 1028.7 0.0
29/09:00pm 8.1 5.8 3.0 70 2.2 N 4 7 2 4 1028.6 1029.1 0.0
29/08:30pm 8.1 5.5 3.4 72 2.0 NNE 6 7 3 4 1028.5 1029.0 0.0
29/08:00pm 8.6 5.8 3.0 68 2.4 N 7 11 4 6 1028.5 1029.0 0.0
29/07:30pm 8.5 5.7 3.4 70 2.2 N 7 9 4 5 1028.6 1029.1 0.0
29/07:00pm 8.8 6.0 3.0 67 2.5 NNW 7 11 4 6 1028.7 1029.2 0.0
29/06:30pm 9.1 5.9 2.9 65 2.7 N 9 13 5 7 1028.4 1028.9 0.0
29/06:00pm 9.2 6.4 3.2 66 2.6 N 7 11 4 6 1028.6 1029.1 0.0
29/05:30pm 9.4 6.2 2.9 64 2.8 N 9 15 5 8 1028.6 1029.1 0.0
29/05:00pm 9.7 6.5 3.0 63 2.9 NNW 9 11 5 6 1028.7 1029.2 0.0
29/04:30pm 9.8 6.5 2.6 61 3.1 NNW 9 15 5 8 1028.6 1029.1 0.0
29/04:00pm 10.0 6.2 3.7 65 2.8 N 13 17 7 9 1029.0 1029.5 0.0
29/03:30pm 10.0 6.7 4.8 70 2.4 N 11 19 6 10 1029.1 1029.6 0.0
29/03:00pm 10.3 7.4 4.9 69 2.4 N 9 15 5 8 1029.2 1029.7 0.0
29/02:30pm 10.1 5.7 4.9 70 2.4 N 17 26 9 14 1029.7 1030.2 0.0
29/02:00pm 9.7 5.7 5.1 73 2.1 N 15 22 8 12 1030.3 1030.8 0.0
29/01:30pm 10.2 6.2 4.8 69 2.5 N 15 19 8 10 1030.7 1031.2 0.0
29/01:00pm 10.3 6.4 5.5 72 2.2 N 15 19 8 10 1031.1 1031.7 0.0
29/12:30pm 9.5 5.6 5.5 76 1.8 N 15 22 8 12 1031.7 1032.3 0.0
29/12:00pm 9.5 5.5 4.7 72 2.1 NNW 15 20 8 11 1032.6 1033.1 0.0
29/11:30am 9.5 6.1 5.9 78 1.7 N 13 19 7 10 1033.3 1033.8 0.0
29/11:00am 8.9 5.7 5.1 77 1.7 NNW 11 15 6 8 1033.1 1033.6 0.0
29/10:30am 8.9 6.6 5.8 81 1.4 N 7 13 4 7 1033.4 1033.9 0.0
29/10:00am 8.1 6.6 5.0 81 1.4 NNE 2 7 1 4 1033.4 1033.9 0.0
29/09:30am 6.1 5.1 5.4 95 0.3 CALM 0 4 0 2 1033.8 1034.3 0.0
29/09:00am 2.3 0.6 1.7 96 0.2 CALM 0 0 0 0 1033.7 1034.2 0.0
29/08:30am 1.0 -0.9 0.4 96 0.2 CALM 0 0 0 0 1034.2 1034.7 0.0
29/08:00am -0.3 -2.4 -1.0 95 0.2 CALM 0 0 0 0 1033.9 1034.4 0.0
29/07:30am -1.0 -3.2 -1.7 95 0.2 CALM 0 0 0 0 1033.4 1033.9 0.0
29/07:00am -1.2 -3.4 -1.9 95 0.2 CALM 0 0 0 0 1033.0 1033.5 0.0
29/06:30am -1.0 -3.2 -1.7 95 0.2 CALM 0 0 0 0 1032.7 1033.2 0.0
29/06:00am -1.8 -4.1 -2.5 95 0.2 CALM 0 0 0 0 1032.6 1033.1 0.0
29/05:30am -1.5 -3.8 -2.2 95 0.2 CALM 0 0 0 0 1032.8 1033.3 0.0
29/05:00am -1.0 -3.2 -1.7 95 0.2 CALM 0 0 0 0 1032.8 1033.3 0.0
29/04:30am -1.1 -3.3 -1.8 95 0.2 CALM 0 0 0 0 1032.6 1033.1 0.0
29/04:00am -0.7 -2.9 -1.4 95 0.2 CALM 0 0 0 0 1032.6 1033.1 0.0
29/03:30am -0.3 -2.4 -0.9 96 0.2 CALM 0 0 0 0 1032.9 1033.4 0.0
29/03:06am -0.6 -2.8 -1.3 95 0.2 CALM 0 0 0 0 1033.1 1033.6 0.0
29/03:00am -0.6 -2.8 -1.2 96 0.2 CALM 0 0 0 0 1033.1 1033.6 0.0
29/02:47am -0.1 -2.2 -0.7 96 0.2 CALM 0 0 0 0 1033.2 1033.7 0.0
29/02:30am -0.1 -2.2 -0.7 96 0.2 CALM 0 0 0 0 1033.2 1033.7 0.0
29/02:00am -0.2 -2.3 -0.9 95 0.2 CALM 0 0 0 0 1033.5 1034.0 0.0
29/01:30am 0.4 -1.6 -0.2 96 0.2 CALM 0 0 0 0 1033.1 1033.6 0.0
29/01:00am -0.1 -2.2 -0.8 95 0.2 CALM 0 0 0 0 1033.1 1033.6 0.0
29/12:30am 0.3 -1.7 -0.4 95 0.3 CALM 0 0 0 0 1033.4 1033.9 0.0
29/12:03am 1.3 -0.6 0.7 96 0.2 CALM 0 0 0 0 1033.9 1034.4 0.0
29/12:00am 1.2 -0.7 0.6 96 0.2 CALM 0 0 0 0 1033.8 1034.3 0.0
 
Date/Time
EST
Temp
°C
App
Temp
°C
Dew
Point
Rel
Hum
%
Delta-T
°C
Wind Press
QNH
hPa
Press
MSL
hPa
Rain
since 9 am
mm
Dir
 
Spd
km/h
Gust
km/h
Spd
kts
Gust
kts
28/11:37pm 0.6 -1.4 -0.1 95 0.3 CALM 0 0 0 0 1033.9 1034.4 0.0
28/11:30pm 0.9 -1.1 0.2 95 0.3 CALM 0 0 0 0 1034.0 1034.5 0.0
28/11:00pm 0.9 -1.1 0.0 94 0.3 CALM 0 0 0 0 1033.8 1034.3 0.0
28/10:30pm 0.9 -1.1 -0.1 93 0.4 CALM 0 0 0 0 1034.0 1034.5 0.0
28/10:00pm 1.6 -0.3 0.7 94 0.3 CALM 0 0 0 0 1034.3 1034.8 0.0
28/09:30pm 1.9 0.1 1.0 94 0.3 CALM 0 0 0 0 1034.4 1034.9 0.0
28/09:00pm 2.7 1.0 2.0 95 0.3 CALM 0 0 0 0 1034.4 1034.9 0.0
28/08:30pm 2.9 1.2 1.9 93 0.4 CALM 0 0 0 0 1034.4 1034.9 0.0
28/08:00pm 2.5 0.7 0.9 89 0.6 CALM 0 0 0 0 1034.4 1034.9 0.0
28/07:30pm 3.9 2.3 2.6 91 0.5 CALM 0 0 0 0 1034.2 1034.7 0.0
28/07:22pm 3.4 1.7 1.6 88 0.7 CALM 0 0 0 0 1034.3 1034.8 0.0
28/07:00pm 4.7 3.2 2.9 88 0.7 CALM 0 0 0 0 1034.0 1034.5 0.0
28/06:30pm 6.1 4.7 3.6 84 1.1 CALM 0 0 0 0 1033.9 1034.4 0.0
28/06:00pm 7.6 6.1 2.9 72 2.0 CALM 0 0 0 0 1033.7 1034.2 0.0
28/05:30pm 10.0 7.8 3.5 64 2.9 WNW 4 7 2 4 1033.7 1034.2 0.0
28/05:00pm 11.7 8.8 2.7 54 3.9 NW 7 11 4 6 1033.5 1034.0 0.0
28/04:30pm 12.2 9.1 3.4 55 3.9 WNW 9 15 5 8 1033.3 1033.8 0.0
28/04:00pm 12.5 8.6 3.2 53 4.1 W 13 17 7 9 1033.6 1034.1 0.0
28/03:30pm 12.7 8.7 2.8 51 4.4 WNW 13 22 7 12 1033.6 1034.1 0.0
28/03:00pm 12.6 9.3 4.6 58 3.7 W 11 15 6 8 1033.5 1034.0 0.0
28/02:30pm 13.0 9.6 4.2 55 4.0 WNW 11 19 6 10 1033.5 1034.0 0.0
28/02:00pm 12.4 9.1 4.4 58 3.6 WSW 11 17 6 9 1033.6 1034.1 0.0
28/01:30pm 11.2 8.6 4.4 63 3.1 W 7 13 4 7 1034.0 1034.5 0.0
28/01:00pm 11.3 7.7 5.2 66 2.8 W 13 20 7 11 1034.3 1034.8 0.0
28/12:30pm 11.4 8.2 5.1 65 2.9 WSW 11 19 6 10 1034.7 1035.2 0.0
28/12:00pm 11.0 8.2 5.3 68 2.6 SW 9 15 5 8 1035.0 1035.5 0.0
28/11:30am 10.1 6.2 5.3 72 2.2 WSW 15 22 8 12 1035.6 1036.2 0.0
28/11:00am 9.9 6.9 5.9 76 1.8 WSW 11 17 6 9 1035.9 1036.5 0.0
28/10:52am 9.6 6.2 5.8 77 1.8 SW 13 20 7 11 1036.0 1036.6 0.0
28/10:30am 9.0 5.5 5.6 79 1.6 SW 13 17 7 9 1036.2 1036.8 0.0
28/10:15am 8.5 5.7 5.3 80 1.5 W 9 15 5 8 1036.1 1036.7 0.0
28/10:00am 8.0 5.2 5.1 82 1.3 W 9 15 5 8 1036.0 1036.6 0.0
28/09:30am 6.9 4.7 5.1 88 0.8 WSW 6 9 3 5 1035.8 1036.4 0.0
28/09:00am 3.5 2.0 2.9 96 0.2 CALM 0 0 0 0 1035.8 1036.4 0.2
28/08:30am 1.6 -0.2 1.2 97 0.2 CALM 0 0 0 0 1035.2 1035.8 0.2
28/08:00am 0.0 -2.1 -0.6 96 0.2 CALM 0 6 0 3 1035.1 1035.7 0.2
28/07:54am -0.1 -2.2 -0.7 96 0.2 CALM 0 6 0 3 1035.0 1035.5 0.2
28/07:36am -0.1 -2.2 -0.7 96 0.2 CALM 0 0 0 0 1034.7 1035.2 0.2
28/07:30am 0.2 -1.8 -0.4 96 0.2 CALM 0 0 0 0 1034.6 1035.1 0.2
28/07:00am -0.3 -2.4 -0.9 96 0.2 CALM 0 0 0 0 1034.1 1034.6 0.2
28/06:33am -0.1 -2.2 -0.7 96 0.2 CALM 0 0 0 0 1033.7 1034.2 0.0
28/06:30am -0.2 -2.3 -0.8 96 0.2 CALM 0 0 0 0 1033.7 1034.2 0.0
28/06:16am -0.5 -2.7 -1.2 95 0.2 CALM 0 0 0 0 1033.6 1034.1 0.0
28/06:00am 0.2 -1.8 -0.4 96 0.2 CALM 0 0 0 0 1033.5 1034.0 0.0
28/05:30am 0.2 -1.9 -0.5 95 0.3 CALM 0 0 0 0 1033.4 1033.9 0.0
28/05:00am 0.8 -1.2 0.2 96 0.2 CALM 0 0 0 0 1033.4 1033.9 0.0
28/04:55am 0.6 -1.4 -0.1 95 0.3 CALM 0 0 0 0 1033.3 1033.8 0.0
28/04:37am 1.4 -0.5 0.7 95 0.3 CALM 0 0 0 0 1033.2 1033.7 0.0
28/04:30am 1.4 -0.5 0.7 95 0.3 CALM 0 0 0 0 1033.2 1033.7 0.0
28/04:00am 2.3 0.6 1.6 95 0.3 CALM 0 0 0 0 1033.1 1033.6 0.0
28/03:30am 2.8 1.2 2.2 96 0.2 CALM 0 0 0 0 1033.0 1033.5 0.0
28/03:01am 2.6 0.9 2.0 96 0.2 CALM 0 0 0 0 1032.9 1033.4 0.0
28/03:00am 2.5 0.8 1.9 96 0.2 CALM 0 0 0 0 1032.9 1033.4 0.0
28/02:30am 1.4 -0.5 0.5 94 0.3 CALM 0 0 0 0 1032.9 1033.4 0.0
28/02:27am 1.7 -0.1 1.0 95 0.3 CALM 0 0 0 0 1033.0 1033.5 0.0
28/02:00am 2.7 0.6 2.0 95 0.3 N 2 7 1 4 1032.8 1033.3 0.0
28/01:30am 2.6 -0.3 1.4 92 0.5 N 6 7 3 4 1032.5 1033.0 0.0
28/01:00am 4.7 2.2 3.7 93 0.4 WSW 6 11 3 6 1032.4 1032.9 0.0
28/12:30am 3.4 1.9 2.8 96 0.2 CALM 0 0 0 0 1032.3 1032.8 0.0
28/12:00am 2.4 0.6 1.5 94 0.3 CALM 0 6 0 3 1032.3 1032.8 0.0
 
Date/Time
EST
Temp
°C
App
Temp
°C
Dew
Point
Rel
Hum
%
Delta-T
°C
Wind Press
QNH
hPa
Press
MSL
hPa
Rain
since 9 am
mm
Dir
 
Spd
km/h
Gust
km/h
Spd
kts
Gust
kts
27/11:30pm 2.9 0.1 1.9 93 0.4 NNE 6 7 3 4 1032.2 1032.7 0.0
27/11:00pm 4.7 1.2 3.5 92 0.5 WSW 11 13 6 7 1032.4 1032.9 0.0
27/10:30pm 3.3 1.7 2.6 95 0.3 CALM 0 0 0 0 1032.7 1033.2 0.0
27/10:00pm 3.4 1.9 2.8 96 0.2 CALM 0 0 0 0 1032.6 1033.1 0.0
27/09:30pm 2.7 1.0 2.1 96 0.2 CALM 0 0 0 0 1032.3 1032.8 0.0
27/09:00pm 1.9 0.1 0.9 93 0.4 CALM 0 0 0 0 1032.2 1032.7 0.0
27/08:30pm 3.3 1.7 2.4 94 0.4 CALM 0 0 0 0 1032.1 1032.6 0.0
27/08:00pm 3.8 2.2 2.3 90 0.6 CALM 0 0 0 0 1032.1 1032.6 0.0
27/07:30pm 5.1 3.5 2.6 84 1.0 CALM 0 0 0 0 1031.7 1032.3 0.0
27/07:00pm 6.7 4.0 3.9 82 1.2 SW 7 11 4 6 1031.3 1031.9 0.0
27/06:30pm 7.0 4.2 3.4 78 1.5 SW 7 11 4 6 1031.1 1031.7 0.0
27/06:00pm 8.4 5.3 3.7 72 2.0 WSW 9 13 5 7 1030.6 1031.1 0.0
27/05:30pm 9.8 5.2 3.8 66 2.7 WSW 17 24 9 13 1030.3 1030.8 0.0
27/05:00pm 10.2 6.0 3.9 65 2.8 SW 15 24 8 13 1030.1 1030.6 0.0
27/04:30pm 10.3 5.8 4.0 65 2.8 WSW 17 26 9 14 1029.8 1030.3 0.0
27/04:00pm 10.8 5.8 3.8 62 3.1 WSW 19 26 10 14 1029.5 1030.0 0.0
27/03:30pm 10.5 5.6 4.0 64 2.9 WSW 19 26 10 14 1029.4 1029.9 0.0
27/03:00pm 10.6 6.3 3.4 61 3.2 WSW 15 20 8 11 1029.2 1029.7 0.0
27/02:30pm 10.8 5.9 4.3 64 2.9 WSW 19 30 10 16 1029.0 1029.5 0.0
27/02:00pm 10.5 5.6 4.2 65 2.8 WSW 19 26 10 14 1028.8 1029.3 0.0
27/01:30pm 9.8 4.9 4.0 67 2.6 W 19 30 10 16 1028.9 1029.4 0.0
27/01:00pm 9.4 4.8 3.6 67 2.5 WSW 17 24 9 13 1029.2 1029.7 0.0
27/12:30pm 9.4 4.8 3.6 67 2.6 WSW 17 26 9 14 1029.5 1030.0 0.0
27/12:00pm 8.6 4.3 3.4 70 2.2 W 15 22 8 12 1029.8 1030.3 0.0
27/11:30am 8.3 3.6 3.4 71 2.1 WNW 17 22 9 12 1030.4 1030.9 0.0
27/11:00am 7.9 4.0 3.2 72 2.0 W 13 20 7 11 1030.0 1030.5 0.0
27/10:30am 6.9 2.9 3.0 76 1.7 WNW 13 19 7 10 1029.9 1030.4 0.0
27/10:00am 5.7 2.4 2.4 79 1.3 WNW 9 13 5 7 1029.8 1030.3 0.0
27/09:30am 4.5 1.1 2.0 84 1.0 WNW 9 11 5 6 1029.4 1029.9 0.0
27/09:00am 3.5 1.7 1.5 87 0.8 CALM 0 0 0 0 1029.1 1029.6 0.0
27/08:30am 2.0 0.2 1.1 94 0.3 CALM 0 0 0 0 1028.6 1029.1 0.0
27/08:00am 0.4 -1.6 -0.3 95 0.3 CALM 0 0 0 0 1028.3 1028.8 0.0
27/07:30am 0.1 -2.0 -0.6 95 0.3 CALM 0 0 0 0 1027.8 1028.3 0.0
27/07:00am -0.3 -2.4 -1.0 95 0.2 CALM 0 0 0 0 1027.5 1028.0 0.0
27/06:30am 0.0 -2.1 -0.6 96 0.2 CALM 0 0 0 0 1027.1 1027.5 0.0
27/06:00am -0.1 -2.2 -0.7 96 0.2 CALM 0 0 0 0 1026.6 1027.1 0.0
27/05:30am 0.0 -2.1 -0.8 94 0.3 CALM 0 0 0 0 1026.3 1026.8 0.0
27/05:00am 1.6 -2.1 0.1 90 0.6 N 9 11 5 6 1026.1 1026.6 0.0
27/04:30am -0.1 -2.2 -0.8 95 0.2 CALM 0 0 0 0 1025.9 1026.4 0.0
27/04:00am 0.3 -1.8 -0.5 94 0.3 CALM 0 0 0 0 1025.6 1026.1 0.0
27/03:30am 1.3 -1.0 0.1 92 0.4 WSW 2 9 1 5 1025.4 1025.9 0.0
27/03:00am 1.1 -1.7 -0.2 91 0.5 WSW 4 7 2 4 1025.3 1025.8 0.0
27/02:30am 2.0 0.1 0.5 90 0.6 CALM 0 6 0 3 1025.1 1025.6 0.0

Other Formats:

Comma delimited format used in spreadsheet applications
http://www.bom.gov.au/fwo/IDV60801/IDV60801.94855.axf

JavaScript Object Notation format (JSON) in row-major order
http://www.bom.gov.au/fwo/IDV60801/IDV60801.94855.json